RYR21WJ EIDW-EGCC
Flight info
| Callsign | RYR21WJ |
|---|---|
| Flight time | 0h 31m |
| Altitude | 19000 |
| Route | BOFUM1E BOFUM Q37 MALUD |
| Aircraft | B738/M-SDE3FGIJ1LRWYZ/SB1 |
Departure
| Time | 2026-05-07 00:02 |
|---|---|
| Airport | Dublin Airport (EIDW) |
Arrival
| Time | 2026-05-07 00:33 |
|---|---|
| Airport | Manchester Airport (EGCC) |
| Time | Latitude | Longitude | Altitude | Speed | Heading |
|---|---|---|---|---|---|
| 2026-05-06 23:19 | 53.43112 | -6.25024 | 210 ft | 0 kts | 185° |
| 2026-05-06 23:48 | 53.43135 | -6.25021 | 214 ft | 4 kts | 185° |
| 2026-05-06 23:48 | 53.43162 | -6.25017 | 213 ft | 4 kts | 185° |
| 2026-05-06 23:48 | 53.43183 | -6.25013 | 221 ft | 4 kts | 198° |
| 2026-05-06 23:48 | 53.43196 | -6.24992 | 211 ft | 4 kts | 272° |
| 2026-05-06 23:49 | 53.43194 | -6.24951 | 210 ft | 2 kts | 275° |
| 2026-05-06 23:49 | 53.43194 | -6.24948 | 210 ft | 0 kts | 275° |
| 2026-05-06 23:53 | 53.43194 | -6.24951 | 210 ft | 2 kts | 275° |
| 2026-05-06 23:53 | 53.43198 | -6.25012 | 213 ft | 6 kts | 275° |
| 2026-05-06 23:53 | 53.43203 | -6.25106 | 217 ft | 11 kts | 275° |
| 2026-05-06 23:54 | 53.43210 | -6.25238 | 210 ft | 11 kts | 275° |
| 2026-05-06 23:54 | 53.43193 | -6.25365 | 213 ft | 11 kts | 246° |
| 2026-05-06 23:54 | 53.43180 | -6.25491 | 210 ft | 11 kts | 261° |
| 2026-05-06 23:54 | 53.43154 | -6.25607 | 218 ft | 10 kts | 246° |
| 2026-05-06 23:55 | 53.43121 | -6.25713 | 214 ft | 10 kts | 231° |
| 2026-05-06 23:55 | 53.43049 | -6.25728 | 214 ft | 15 kts | 156° |
| 2026-05-06 23:55 | 53.42950 | -6.25655 | 212 ft | 18 kts | 156° |
| 2026-05-06 23:55 | 53.42820 | -6.25559 | 216 ft | 21 kts | 156° |
| 2026-05-06 23:56 | 53.42686 | -6.25479 | 211 ft | 19 kts | 182° |
| 2026-05-06 23:56 | 53.42586 | -6.25609 | 210 ft | 18 kts | 225° |
| 2026-05-06 23:56 | 53.42500 | -6.25755 | 214 ft | 17 kts | 224° |
| 2026-05-06 23:56 | 53.42419 | -6.25891 | 213 ft | 16 kts | 225° |
| 2026-05-06 23:57 | 53.42339 | -6.26030 | 212 ft | 18 kts | 226° |
| 2026-05-06 23:57 | 53.42272 | -6.26211 | 214 ft | 18 kts | 255° |
| 2026-05-06 23:57 | 53.42273 | -6.26420 | 214 ft | 18 kts | 276° |
| 2026-05-06 23:57 | 53.42285 | -6.26622 | 210 ft | 17 kts | 275° |
| 2026-05-06 23:58 | 53.42295 | -6.26817 | 210 ft | 16 kts | 275° |
| 2026-05-06 23:58 | 53.42307 | -6.27031 | 216 ft | 22 kts | 275° |
| 2026-05-06 23:58 | 53.42322 | -6.27311 | 214 ft | 24 kts | 275° |
| 2026-05-06 23:58 | 53.42337 | -6.27585 | 219 ft | 23 kts | 275° |
| 2026-05-06 23:59 | 53.42351 | -6.27847 | 219 ft | 22 kts | 276° |
| 2026-05-06 23:59 | 53.42365 | -6.28102 | 216 ft | 22 kts | 275° |
| 2026-05-06 23:59 | 53.42379 | -6.28342 | 212 ft | 20 kts | 275° |
| 2026-05-06 23:59 | 53.42391 | -6.28565 | 210 ft | 18 kts | 275° |
| 2026-05-07 00:00 | 53.42402 | -6.28770 | 210 ft | 17 kts | 276° |
| 2026-05-07 00:00 | 53.42411 | -6.28948 | 212 ft | 14 kts | 266° |
| 2026-05-07 00:00 | 53.42366 | -6.29066 | 210 ft | 12 kts | 202° |
| 2026-05-07 00:00 | 53.42276 | -6.29066 | 208 ft | 14 kts | 162° |
| 2026-05-07 00:01 | 53.42241 | -6.28980 | 208 ft | 5 kts | 95° |
| 2026-05-07 00:01 | 53.42241 | -6.28971 | 210 ft | 0 kts | 95° |
| 2026-05-07 00:01 | 53.42227 | -6.28724 | 210 ft | 54 kts | 95° |
| 2026-05-07 00:01 | 53.42171 | -6.27695 | 211 ft | 121 kts | 95° |
| 2026-05-07 00:02 | 53.42078 | -6.26015 | 259 ft | 163 kts | 95° |
| 2026-05-07 00:02 | 53.42009 | -6.24083 | 726 ft | 165 kts | 96° |
| 2026-05-07 00:02 | 53.41898 | -6.22130 | 1228 ft | 173 kts | 98° |
| 2026-05-07 00:02 | 53.41770 | -6.20082 | 1751 ft | 181 kts | 99° |
| 2026-05-07 00:03 | 53.41639 | -6.17870 | 2091 ft | 201 kts | 98° |
| 2026-05-07 00:03 | 53.41505 | -6.15451 | 2443 ft | 214 kts | 97° |
| 2026-05-07 00:03 | 53.41366 | -6.12876 | 2752 ft | 235 kts | 97° |
| 2026-05-07 00:03 | 53.41189 | -6.09970 | 3073 ft | 263 kts | 98° |
| 2026-05-07 00:04 | 53.40995 | -6.06872 | 3876 ft | 267 kts | 97° |
| 2026-05-07 00:04 | 53.40830 | -6.03853 | 4965 ft | 264 kts | 93° |
| 2026-05-07 00:04 | 53.41094 | -6.00702 | 5540 ft | 282 kts | 71° |
| 2026-05-07 00:04 | 53.41920 | -5.97640 | 6261 ft | 288 kts | 63° |
| 2026-05-07 00:05 | 53.42798 | -5.94744 | 7326 ft | 281 kts | 64° |
| 2026-05-07 00:05 | 53.43640 | -5.91744 | 8076 ft | 287 kts | 66° |
| 2026-05-07 00:05 | 53.44430 | -5.88649 | 8866 ft | 291 kts | 68° |
| 2026-05-07 00:05 | 53.45201 | -5.85477 | 9643 ft | 296 kts | 69° |
| 2026-05-07 00:06 | 53.45976 | -5.82236 | 10312 ft | 304 kts | 69° |
| 2026-05-07 00:06 | 53.46797 | -5.78813 | 10534 ft | 329 kts | 69° |
| 2026-05-07 00:06 | 53.47677 | -5.75171 | 10997 ft | 342 kts | 69° |
| 2026-05-07 00:06 | 53.48578 | -5.71440 | 11715 ft | 347 kts | 68° |
| 2026-05-07 00:07 | 53.49489 | -5.67663 | 12530 ft | 350 kts | 68° |
| 2026-05-07 00:07 | 53.50406 | -5.63855 | 13324 ft | 355 kts | 68° |
| 2026-05-07 00:07 | 53.51337 | -5.59980 | 14094 ft | 359 kts | 68° |
| 2026-05-07 00:07 | 53.52271 | -5.56083 | 14925 ft | 360 kts | 68° |
| 2026-05-07 00:08 | 53.53198 | -5.52198 | 15916 ft | 356 kts | 69° |
| 2026-05-07 00:08 | 53.53745 | -5.48194 | 16918 ft | 352 kts | 89° |
| 2026-05-07 00:08 | 53.53667 | -5.44114 | 17972 ft | 347 kts | 93° |
| 2026-05-07 00:08 | 53.53538 | -5.40064 | 18647 ft | 348 kts | 93° |
| 2026-05-07 00:09 | 53.53410 | -5.35998 | 18962 ft | 349 kts | 93° |
| 2026-05-07 00:09 | 53.53290 | -5.31903 | 18986 ft | 351 kts | 92° |
| 2026-05-07 00:09 | 53.53180 | -5.27824 | 19004 ft | 348 kts | 92° |
| 2026-05-07 00:09 | 53.53076 | -5.23772 | 19006 ft | 346 kts | 92° |
| 2026-05-07 00:10 | 53.52972 | -5.19739 | 19004 ft | 345 kts | 92° |
| 2026-05-07 00:10 | 53.52867 | -5.15717 | 19014 ft | 344 kts | 92° |
| 2026-05-07 00:10 | 53.52749 | -5.11700 | 19016 ft | 344 kts | 93° |
| 2026-05-07 00:10 | 53.52622 | -5.07680 | 19016 ft | 345 kts | 93° |
| 2026-05-07 00:11 | 53.52494 | -5.03662 | 19017 ft | 345 kts | 93° |
| 2026-05-07 00:11 | 53.52364 | -4.99627 | 19016 ft | 346 kts | 93° |
| 2026-05-07 00:11 | 53.52234 | -4.95588 | 19017 ft | 347 kts | 93° |
| 2026-05-07 00:11 | 53.52104 | -4.91532 | 19016 ft | 347 kts | 93° |
| 2026-05-07 00:12 | 53.51971 | -4.87480 | 19015 ft | 348 kts | 93° |
| 2026-05-07 00:12 | 53.51837 | -4.83417 | 19014 ft | 348 kts | 93° |
| 2026-05-07 00:12 | 53.51701 | -4.79350 | 19013 ft | 349 kts | 93° |
| 2026-05-07 00:12 | 53.51567 | -4.75338 | 19016 ft | 349 kts | 93° |
| 2026-05-07 00:13 | 53.51430 | -4.71272 | 19016 ft | 349 kts | 93° |
| 2026-05-07 00:13 | 53.51291 | -4.67207 | 19023 ft | 348 kts | 93° |
| 2026-05-07 00:13 | 53.51151 | -4.63147 | 19014 ft | 348 kts | 93° |
| 2026-05-07 00:13 | 53.51010 | -4.59084 | 19014 ft | 348 kts | 93° |
| 2026-05-07 00:14 | 53.50868 | -4.55030 | 19016 ft | 348 kts | 93° |
| 2026-05-07 00:14 | 53.50724 | -4.50968 | 19016 ft | 348 kts | 93° |
| 2026-05-07 00:14 | 53.50579 | -4.46911 | 19016 ft | 348 kts | 93° |
| 2026-05-07 00:14 | 53.50433 | -4.42856 | 19016 ft | 348 kts | 94° |
| 2026-05-07 00:15 | 53.50285 | -4.38801 | 19014 ft | 348 kts | 94° |
| 2026-05-07 00:15 | 53.50136 | -4.34752 | 19016 ft | 348 kts | 94° |
| 2026-05-07 00:15 | 53.49986 | -4.30697 | 19020 ft | 348 kts | 94° |
| 2026-05-07 00:15 | 53.49834 | -4.26643 | 19019 ft | 348 kts | 94° |
| 2026-05-07 00:16 | 53.49681 | -4.22587 | 19021 ft | 348 kts | 94° |
| 2026-05-07 00:16 | 53.49526 | -4.18531 | 19019 ft | 348 kts | 94° |
| 2026-05-07 00:16 | 53.49370 | -4.14472 | 19018 ft | 348 kts | 94° |
| 2026-05-07 00:16 | 53.49214 | -4.10421 | 19019 ft | 348 kts | 94° |
| 2026-05-07 00:17 | 53.49056 | -4.06370 | 19019 ft | 348 kts | 94° |
| 2026-05-07 00:17 | 53.48896 | -4.02318 | 19019 ft | 348 kts | 94° |
| 2026-05-07 00:17 | 53.48732 | -3.98266 | 19018 ft | 348 kts | 95° |
| 2026-05-07 00:17 | 53.48322 | -3.94272 | 19020 ft | 347 kts | 107° |
| 2026-05-07 00:18 | 53.47559 | -3.90432 | 19030 ft | 347 kts | 110° |
| 2026-05-07 00:18 | 53.46752 | -3.86645 | 19022 ft | 340 kts | 110° |
| 2026-05-07 00:18 | 53.45958 | -3.82933 | 18817 ft | 337 kts | 110° |
| 2026-05-07 00:18 | 53.45180 | -3.79256 | 18616 ft | 333 kts | 110° |
| 2026-05-07 00:19 | 53.44413 | -3.75600 | 18306 ft | 331 kts | 110° |
| 2026-05-07 00:19 | 53.43655 | -3.71960 | 17966 ft | 329 kts | 110° |
| 2026-05-07 00:19 | 53.42904 | -3.68353 | 17635 ft | 327 kts | 110° |
| 2026-05-07 00:19 | 53.42157 | -3.64768 | 17323 ft | 324 kts | 110° |
| 2026-05-07 00:20 | 53.41424 | -3.61204 | 16997 ft | 322 kts | 107° |
| 2026-05-07 00:20 | 53.41044 | -3.57497 | 16606 ft | 325 kts | 95° |
| 2026-05-07 00:20 | 53.40899 | -3.53704 | 16217 ft | 327 kts | 94° |
| 2026-05-07 00:20 | 53.40777 | -3.49899 | 15816 ft | 328 kts | 94° |
| 2026-05-07 00:21 | 53.40644 | -3.46081 | 15404 ft | 329 kts | 94° |
| 2026-05-07 00:21 | 53.40497 | -3.42252 | 15001 ft | 330 kts | 95° |
| 2026-05-07 00:21 | 53.40337 | -3.38420 | 14596 ft | 330 kts | 95° |
| 2026-05-07 00:21 | 53.40169 | -3.34577 | 14187 ft | 331 kts | 95° |
| 2026-05-07 00:22 | 53.39995 | -3.30725 | 13772 ft | 332 kts | 95° |
| 2026-05-07 00:22 | 53.39820 | -3.26869 | 13317 ft | 331 kts | 95° |
| 2026-05-07 00:22 | 53.39645 | -3.23067 | 12876 ft | 323 kts | 95° |
| 2026-05-07 00:22 | 53.39473 | -3.19368 | 12488 ft | 315 kts | 95° |
| 2026-05-07 00:23 | 53.39310 | -3.15758 | 12089 ft | 307 kts | 92° |
| 2026-05-07 00:23 | 53.39640 | -3.12264 | 11732 ft | 305 kts | 68° |
| 2026-05-07 00:23 | 53.40594 | -3.09103 | 11377 ft | 304 kts | 59° |
| 2026-05-07 00:23 | 53.41672 | -3.06044 | 10995 ft | 305 kts | 58° |
| 2026-05-07 00:24 | 53.42773 | -3.02978 | 10532 ft | 309 kts | 58° |
| 2026-05-07 00:24 | 53.43826 | -2.99830 | 10211 ft | 308 kts | 68° |
| 2026-05-07 00:24 | 53.44091 | -2.96344 | 9981 ft | 300 kts | 101° |
| 2026-05-07 00:24 | 53.43342 | -2.93200 | 9637 ft | 292 kts | 125° |
| 2026-05-07 00:25 | 53.42021 | -2.90670 | 9251 ft | 285 kts | 142° |
| 2026-05-07 00:25 | 53.40438 | -2.88745 | 8925 ft | 278 kts | 148° |
| 2026-05-07 00:25 | 53.38837 | -2.86955 | 8525 ft | 276 kts | 149° |
| 2026-05-07 00:25 | 53.37784 | -2.85788 | 8294 ft | 274 kts | 149° |
| 2026-05-07 00:26 | 53.35654 | -2.83413 | 7842 ft | 276 kts | 148° |
| 2026-05-07 00:26 | 53.34595 | -2.82223 | 7617 ft | 278 kts | 148° |
| 2026-05-07 00:26 | 53.32992 | -2.80412 | 7291 ft | 279 kts | 148° |
| 2026-05-07 00:26 | 53.31384 | -2.78587 | 6952 ft | 280 kts | 148° |
| 2026-05-07 00:27 | 53.29770 | -2.76750 | 6603 ft | 281 kts | 148° |
| 2026-05-07 00:27 | 53.28157 | -2.74912 | 6246 ft | 281 kts | 148° |
| 2026-05-07 00:27 | 53.26538 | -2.73070 | 5891 ft | 281 kts | 148° |
| 2026-05-07 00:27 | 53.24925 | -2.71237 | 5533 ft | 278 kts | 148° |
| 2026-05-07 00:28 | 53.23366 | -2.69392 | 5178 ft | 271 kts | 140° |
| 2026-05-07 00:28 | 53.22332 | -2.66831 | 4865 ft | 266 kts | 110° |
| 2026-05-07 00:28 | 53.22012 | -2.63845 | 4560 ft | 259 kts | 94° |
| 2026-05-07 00:28 | 53.21979 | -2.60880 | 4239 ft | 253 kts | 91° |
| 2026-05-07 00:29 | 53.21974 | -2.57979 | 3946 ft | 244 kts | 92° |
| 2026-05-07 00:29 | 53.21978 | -2.55217 | 3655 ft | 233 kts | 86° |
| 2026-05-07 00:30 | 53.24446 | -2.49168 | 3012 ft | 199 kts | 53° |
| 2026-05-07 00:30 | 53.25286 | -2.47384 | 2760 ft | 192 kts | 53° |
| 2026-05-07 00:30 | 53.26110 | -2.45672 | 2509 ft | 187 kts | 53° |
| 2026-05-07 00:30 | 53.26912 | -2.44014 | 2241 ft | 179 kts | 53° |
| 2026-05-07 00:31 | 53.27669 | -2.42454 | 1991 ft | 168 kts | 54° |
| 2026-05-07 00:31 | 53.28386 | -2.40973 | 1779 ft | 162 kts | 54° |
| 2026-05-07 00:31 | 53.29088 | -2.39522 | 1583 ft | 159 kts | 54° |
| 2026-05-07 00:31 | 53.29784 | -2.38086 | 1341 ft | 158 kts | 54° |
| 2026-05-07 00:32 | 53.30472 | -2.36665 | 1113 ft | 154 kts | 53° |
| 2026-05-07 00:32 | 53.31138 | -2.35300 | 859 ft | 149 kts | 53° |
| 2026-05-07 00:32 | 53.31781 | -2.33962 | 664 ft | 147 kts | 52° |
| 2026-05-07 00:32 | 53.32427 | -2.32641 | 460 ft | 147 kts | 51° |
| 2026-05-07 00:33 | 53.33078 | -2.31312 | 291 ft | 147 kts | 50° |
| 2026-05-07 00:33 | 53.33696 | -2.30033 | 230 ft | 125 kts | 51° |
| 2026-05-07 00:33 | 53.34151 | -2.29095 | 231 ft | 83 kts | 51° |
| 2026-05-07 00:33 | 53.34405 | -2.28625 | 224 ft | 33 kts | 33° |
| 2026-05-07 00:34 | 53.34533 | -2.28518 | 227 ft | 16 kts | 21° |
| 2026-05-07 00:34 | 53.34633 | -2.28453 | 229 ft | 15 kts | 21° |
| 2026-05-07 00:34 | 53.34721 | -2.28375 | 229 ft | 14 kts | 44° |
| 2026-05-07 00:34 | 53.34778 | -2.28263 | 230 ft | 11 kts | 50° |
| 2026-05-07 00:35 | 53.34859 | -2.28096 | 228 ft | 24 kts | 51° |
| 2026-05-07 00:35 | 53.34960 | -2.27886 | 230 ft | 22 kts | 52° |
| 2026-05-07 00:35 | 53.35051 | -2.27696 | 231 ft | 18 kts | 51° |
| 2026-05-07 00:35 | 53.35120 | -2.27554 | 236 ft | 13 kts | 51° |
| 2026-05-07 00:36 | 53.35185 | -2.27420 | 236 ft | 18 kts | 51° |
| 2026-05-07 00:36 | 53.35280 | -2.27225 | 239 ft | 23 kts | 50° |
| 2026-05-07 00:36 | 53.35379 | -2.27022 | 246 ft | 22 kts | 50° |
| 2026-05-07 00:36 | 53.35475 | -2.26822 | 255 ft | 22 kts | 51° |
| 2026-05-07 00:37 | 53.35564 | -2.26654 | 261 ft | 17 kts | 34° |
| 2026-05-07 00:37 | 53.35673 | -2.26636 | 268 ft | 16 kts | 350° |
| 2026-05-07 00:37 | 53.35777 | -2.26666 | 268 ft | 15 kts | 350° |
| 2026-05-07 00:37 | 53.35881 | -2.26697 | 261 ft | 13 kts | 350° |
| 2026-05-07 00:38 | 53.35972 | -2.26732 | 255 ft | 11 kts | 334° |
| 2026-05-07 00:38 | 53.36032 | -2.26732 | 254 ft | 5 kts | 36° |
| 2026-05-07 00:38 | 53.36061 | -2.26748 | 254 ft | 5 kts | 321° |
| 2026-05-07 00:38 | 53.36080 | -2.26781 | 254 ft | 3 kts | 314° |
| 2026-05-07 00:39 | 53.36087 | -2.26792 | 254 ft | 1 kts | 314° |
| 2026-05-07 00:39 | 53.36088 | -2.26793 | 254 ft | 0 kts | 314° |